Terminal Aerodrome Forecast
Issued by NWS

Home | Current Version | Previous Version | Text Only | Print | Product List | Glossary Off
Versions: 1 2 3 4 5 6 7 8 9 10 11 12 13

273
FTUS43 KOAX 022344
TAFCDR
TAF
KCDR 022344Z 0300/0324 31006KT P6SM BKN050 OVC100
     FM030300 30005KT 4SM BR BKN015 OVC025
     FM031300 29010KT P6SM OVC025=

USA.gov is the U.S. government's official web portal to all federal, state and local government web resources and services.